createdAt,value
2018-10-05T00:01:27.499Z,37.12
2018-10-05T00:04:03.512Z,37.42
2018-10-05T00:06:39.354Z,36.44
2018-10-05T00:09:15.921Z,37.39
2018-10-05T00:11:51.508Z,36.30
2018-10-05T00:14:27.096Z,37.42
2018-10-05T00:17:02.948Z,37.94
2018-10-05T00:19:38.768Z,37.34
2018-10-05T00:22:14.320Z,36.79
2018-10-05T00:26:17.928Z,37.38
2018-10-05T00:28:53.494Z,37.41
2018-10-05T00:31:29.097Z,36.74
2018-10-05T00:34:04.993Z,36.43
2018-10-05T00:38:54.696Z,36.47
2018-10-05T00:41:30.727Z,37.53
2018-10-05T00:44:06.449Z,36.89
2018-10-05T00:46:41.944Z,36.70
2018-10-05T00:49:17.735Z,36.99
2018-10-05T00:51:53.776Z,36.69
2018-10-05T00:54:29.446Z,37.52
2018-10-05T00:57:05.673Z,36.27
2018-10-05T00:59:41.649Z,36.86
2018-10-05T01:02:17.436Z,36.95
2018-10-05T01:07:28.595Z,36.55
2018-10-05T01:10:05.516Z,37.23
2018-10-05T01:12:41.463Z,36.76
2018-10-05T01:15:17.437Z,36.73
2018-10-05T01:17:52.982Z,37.46
2018-10-05T01:20:28.663Z,37.03
2018-10-05T01:23:04.584Z,37.45
2018-10-05T01:25:40.173Z,37.32
2018-10-05T01:28:15.975Z,36.83
2018-10-05T01:30:51.529Z,37.72
2018-10-05T01:33:27.402Z,36.81
2018-10-05T01:36:02.950Z,37.71
2018-10-05T01:38:38.810Z,37.15
2018-10-05T01:41:14.532Z,36.87
2018-10-05T01:44:49.680Z,36.79
2018-10-05T01:47:25.683Z,37.85
2018-10-05T01:52:57.401Z,37.66
2018-10-05T01:55:32.957Z,37.36
2018-10-05T01:58:08.967Z,37.69
2018-10-05T02:00:44.700Z,37.14
2018-10-05T02:03:21.821Z,37.42
2018-10-05T02:05:57.425Z,37.48
2018-10-05T02:08:33.556Z,37.94
2018-10-05T02:11:09.516Z,36.88
2018-10-05T02:13:45.609Z,37.72
2018-10-05T02:16:21.556Z,37.25
2018-10-05T02:18:57.529Z,38.08
2018-10-05T02:21:33.552Z,37.21
2018-10-05T02:24:10.217Z,36.70
2018-10-05T02:26:45.598Z,36.79
2018-10-05T02:29:20.975Z,36.89
2018-10-05T02:31:56.373Z,36.60
2018-10-05T02:34:32.153Z,37.72
2018-10-05T02:37:07.990Z,37.77
2018-10-05T02:39:43.701Z,36.95
2018-10-05T02:42:19.769Z,37.34
2018-10-05T02:44:55.235Z,37.70
2018-10-05T02:47:31.015Z,37.24
2018-10-05T02:50:06.638Z,36.91
2018-10-05T02:52:42.533Z,37.06
2018-10-05T02:55:18.156Z,37.13
2018-10-05T02:57:53.985Z,37.67
2018-10-05T03:00:43.005Z,36.49
2018-10-05T03:03:18.716Z,36.55
2018-10-05T03:05:54.544Z,36.98
2018-10-05T03:08:29.995Z,36.82
2018-10-05T03:11:05.798Z,36.99
2018-10-05T03:17:58.027Z,36.83
2018-10-05T03:20:33.765Z,37.55
2018-10-05T03:23:09.476Z,37.68
2018-10-05T03:25:45.984Z,36.92
2018-10-05T03:28:22.596Z,38.23
2018-10-05T03:30:58.437Z,38.29
2018-10-05T03:33:34.062Z,37.19
2018-10-05T03:36:07.644Z,38.17
2018-10-05T03:38:43.397Z,38.23
2018-10-05T03:41:18.988Z,37.34
2018-10-05T03:43:54.751Z,38.13
2018-10-05T03:46:30.529Z,39.00
2018-10-05T03:49:06.320Z,38.04
2018-10-05T03:51:41.864Z,38.50
2018-10-05T03:54:18.187Z,38.64
2018-10-05T03:56:54.004Z,37.55
2018-10-05T03:59:29.830Z,39.29
2018-10-05T04:02:05.827Z,38.67
2018-10-05T04:04:41.846Z,38.71
2018-10-05T04:07:18.576Z,38.58
2018-10-05T04:09:54.988Z,38.31
2018-10-05T04:12:30.858Z,38.54
2018-10-05T04:15:07.132Z,38.17
2018-10-05T04:17:42.830Z,38.57
2018-10-05T04:20:18.292Z,38.40
2018-10-05T04:22:54.314Z,38.73
2018-10-05T04:25:30.032Z,38.19
2018-10-05T04:28:05.758Z,38.40
2018-10-05T04:30:41.831Z,39.06
2018-10-05T04:33:17.501Z,38.92
2018-10-05T04:35:53.187Z,38.04
2018-10-05T04:38:28.851Z,37.93
2018-10-05T04:41:04.495Z,38.58
2018-10-05T04:43:40.145Z,38.05
2018-10-05T04:46:16.087Z,38.73
2018-10-05T04:48:51.821Z,38.48
2018-10-05T04:51:27.856Z,38.64
2018-10-05T04:54:03.515Z,37.80
2018-10-05T04:56:39.745Z,38.62
2018-10-05T04:59:15.641Z,38.06
2018-10-05T05:01:51.516Z,37.93
2018-10-05T05:04:26.857Z,38.20
2018-10-05T05:07:03.675Z,37.34
2018-10-05T05:09:39.699Z,37.88
2018-10-05T05:12:16.098Z,38.69
2018-10-05T05:17:23.874Z,38.80
2018-10-05T05:19:59.354Z,38.61
2018-10-05T05:22:35.106Z,38.38
2018-10-05T05:25:10.970Z,38.50
2018-10-05T05:27:46.851Z,37.63
2018-10-05T05:30:22.845Z,38.67
2018-10-05T05:32:58.676Z,38.51
2018-10-05T05:35:35.043Z,38.61
2018-10-05T05:38:10.781Z,38.73
2018-10-05T05:40:46.677Z,38.40
2018-10-05T05:43:22.441Z,37.24
2018-10-05T05:45:58.884Z,38.11
2018-10-05T05:48:34.532Z,37.90
2018-10-05T05:51:08.599Z,38.56
2018-10-05T05:53:44.281Z,38.63
2018-10-05T05:56:19.862Z,38.55
2018-10-05T05:58:55.794Z,38.20
2018-10-05T06:01:31.382Z,38.67
2018-10-05T06:04:07.285Z,38.65
2018-10-05T06:06:42.786Z,38.36
2018-10-05T06:09:18.852Z,37.79
2018-10-05T06:11:54.745Z,38.40
2018-10-05T06:14:30.570Z,37.94
2018-10-05T06:19:37.634Z,38.17
2018-10-05T06:22:13.273Z,37.93
2018-10-05T06:24:49.854Z,38.26
2018-10-05T06:27:25.672Z,37.89
2018-10-05T06:30:01.804Z,37.52
2018-10-05T06:32:37.669Z,37.86
2018-10-05T06:35:13.296Z,37.81
2018-10-05T06:37:49.689Z,37.75
2018-10-05T06:40:26.020Z,38.14
2018-10-05T06:43:02.770Z,38.32
2018-10-05T06:45:39.072Z,37.72
2018-10-05T06:48:15.138Z,38.62
2018-10-05T06:50:51.286Z,38.71
2018-10-05T06:53:27.262Z,38.50
2018-10-05T06:56:04.073Z,38.44
2018-10-05T06:58:40.296Z,38.65
2018-10-05T07:01:16.140Z,38.34
2018-10-05T07:03:52.080Z,38.11
2018-10-05T07:06:28.600Z,37.74
2018-10-05T07:09:05.239Z,38.25
2018-10-05T07:11:41.120Z,38.03
2018-10-05T07:14:17.962Z,37.51
2018-10-05T07:16:53.616Z,38.15
2018-10-05T07:19:29.815Z,37.92
2018-10-05T07:22:05.918Z,37.15
2018-10-05T07:24:41.639Z,38.66
2018-10-05T07:27:17.820Z,37.16
2018-10-05T07:29:54.080Z,38.18
2018-10-05T07:32:30.202Z,37.41
2018-10-05T07:35:06.096Z,37.03
2018-10-05T07:37:42.660Z,37.48
2018-10-05T07:40:18.829Z,37.53
2018-10-05T07:42:54.904Z,38.78
2018-10-05T07:45:30.904Z,37.34
2018-10-05T07:48:06.896Z,37.48
2018-10-05T07:50:42.872Z,37.48
2018-10-05T07:53:18.744Z,37.56
2018-10-05T07:55:54.605Z,37.36
2018-10-05T07:58:30.900Z,37.64
2018-10-05T08:01:06.910Z,37.87
2018-10-05T08:03:43.822Z,38.50
2018-10-05T08:06:20.054Z,38.16
2018-10-05T08:08:56.100Z,38.27
2018-10-05T08:11:32.256Z,38.59
2018-10-05T08:14:09.115Z,38.10
2018-10-05T08:16:46.102Z,37.90
2018-10-05T08:19:22.931Z,38.22
2018-10-05T08:21:59.137Z,38.25
2018-10-05T08:24:35.109Z,38.31
2018-10-05T08:27:11.687Z,38.16
2018-10-05T08:32:35.955Z,38.34
2018-10-05T08:35:11.950Z,37.40
2018-10-05T08:37:48.427Z,38.06
2018-10-05T08:40:24.851Z,37.46
2018-10-05T08:43:01.101Z,38.26
2018-10-05T08:45:37.299Z,37.06
2018-10-05T08:48:13.384Z,37.05
2018-10-05T08:50:49.856Z,37.62
2018-10-05T08:53:26.069Z,38.65
2018-10-05T08:56:01.952Z,37.86
2018-10-05T08:58:38.279Z,38.41
2018-10-05T09:01:14.790Z,37.42
2018-10-05T09:03:50.852Z,37.03
2018-10-05T09:06:27.121Z,37.28
2018-10-05T09:09:03.600Z,37.81
2018-10-05T09:11:40.139Z,37.36
2018-10-05T09:14:16.128Z,37.52
2018-10-05T09:16:52.135Z,37.23
2018-10-05T09:19:27.830Z,37.52
2018-10-05T09:22:04.124Z,37.67
2018-10-05T09:24:40.084Z,37.55
2018-10-05T09:27:16.304Z,36.88
2018-10-05T09:29:52.304Z,36.50
2018-10-05T09:32:28.316Z,37.14
2018-10-05T09:35:03.939Z,38.11
2018-10-05T09:37:40.250Z,37.46
2018-10-05T09:40:16.325Z,37.41
2018-10-05T09:42:52.733Z,38.03
2018-10-05T09:45:29.319Z,37.28
2018-10-05T09:48:05.970Z,36.88
2018-10-05T09:52:16.210Z,38.06
2018-10-05T09:54:52.351Z,36.36
2018-10-05T09:57:28.779Z,37.60
2018-10-05T10:00:04.998Z,37.20
2018-10-05T10:02:45.152Z,37.98
2018-10-05T10:05:20.849Z,36.61
2018-10-05T10:07:57.034Z,37.94
2018-10-05T10:10:33.196Z,36.89
2018-10-05T10:13:08.976Z,37.50
2018-10-05T10:15:45.307Z,37.94
2018-10-05T10:18:21.189Z,37.96
2018-10-05T10:20:58.792Z,38.24
2018-10-05T10:23:35.016Z,37.44
2018-10-05T10:26:11.108Z,37.83
2018-10-05T10:28:47.463Z,37.81
2018-10-05T10:31:23.982Z,37.44
2018-10-05T10:34:00.009Z,37.39
2018-10-05T10:36:36.302Z,36.54
2018-10-05T10:39:13.964Z,36.72
2018-10-05T10:41:50.111Z,35.39
2018-10-05T10:44:26.332Z,36.10
2018-10-05T10:47:03.021Z,35.88
2018-10-05T10:49:40.012Z,36.51
2018-10-05T10:52:16.330Z,36.52
2018-10-05T10:54:52.864Z,35.60
2018-10-05T10:57:29.002Z,35.83
2018-10-05T11:00:05.441Z,36.47
2018-10-05T11:02:41.826Z,35.28
2018-10-05T11:05:17.992Z,35.76
2018-10-05T11:07:54.176Z,35.47
2018-10-05T11:10:30.271Z,36.46
2018-10-05T11:15:23.416Z,35.60
2018-10-05T11:18:01.554Z,34.95
2018-10-05T11:20:37.845Z,35.39
2018-10-05T11:23:14.296Z,35.94
2018-10-05T11:25:50.414Z,34.72
2018-10-05T11:28:33.440Z,35.20
2018-10-05T11:31:13.445Z,36.10
2018-10-05T11:33:49.916Z,35.35
2018-10-05T11:36:26.004Z,35.08
2018-10-05T11:39:01.909Z,35.02
2018-10-05T11:41:38.103Z,34.40
2018-10-05T11:44:14.133Z,34.83
2018-10-05T11:46:50.342Z,34.84
2018-10-05T11:50:16.913Z,34.84
2018-10-05T11:52:53.364Z,35.20
2018-10-05T11:55:29.643Z,34.95
2018-10-05T11:58:06.012Z,35.13
2018-10-05T12:00:42.047Z,33.99
2018-10-05T12:03:18.767Z,33.92
2018-10-05T12:05:54.997Z,34.30
2018-10-05T12:08:30.932Z,35.00
2018-10-05T12:11:07.377Z,34.80
2018-10-05T12:13:44.062Z,34.95
2018-10-05T12:16:20.240Z,33.98
2018-10-05T12:18:56.370Z,34.31
2018-10-05T12:21:33.197Z,33.15
2018-10-05T12:24:09.001Z,34.22
2018-10-05T12:26:45.263Z,33.94
2018-10-05T12:29:21.831Z,34.21
2018-10-05T12:31:58.206Z,34.08
2018-10-05T12:34:34.220Z,33.32
2018-10-05T12:37:10.714Z,33.96
2018-10-05T12:39:47.240Z,33.87
2018-10-05T12:42:23.413Z,34.34
2018-10-05T12:44:59.992Z,33.59
2018-10-05T12:47:36.025Z,33.13
2018-10-05T12:50:12.279Z,33.23
2018-10-05T12:52:48.380Z,34.09
2018-10-05T12:55:24.316Z,33.92
2018-10-05T12:58:00.250Z,32.69
2018-10-05T13:00:37.579Z,33.48
2018-10-05T13:03:13.959Z,33.09
2018-10-05T13:05:50.022Z,33.37
2018-10-05T13:08:26.051Z,33.65
2018-10-05T13:11:01.954Z,32.54
2018-10-05T13:13:38.419Z,33.21
2018-10-05T13:16:14.740Z,32.43
2018-10-05T13:18:50.931Z,33.14
2018-10-05T13:21:28.051Z,33.60
2018-10-05T13:24:04.931Z,33.28
2018-10-05T13:26:41.411Z,33.43
2018-10-05T13:29:18.009Z,32.46
2018-10-05T13:31:54.229Z,32.95
2018-10-05T13:34:30.527Z,32.41
2018-10-05T13:37:06.222Z,33.49
2018-10-05T13:39:42.065Z,33.12
2018-10-05T13:42:18.060Z,33.10
2018-10-05T13:44:53.936Z,32.67
2018-10-05T13:47:30.058Z,33.41
2018-10-05T13:50:06.799Z,32.67
2018-10-05T13:52:42.948Z,32.83
2018-10-05T13:55:19.030Z,32.71
2018-10-05T13:57:55.470Z,33.19
2018-10-05T14:00:32.022Z,32.61
2018-10-05T14:03:08.733Z,33.00
2018-10-05T14:05:45.183Z,32.12
2018-10-05T14:08:21.472Z,32.42
2018-10-05T14:10:57.424Z,32.35
2018-10-05T14:13:33.795Z,31.89
2018-10-05T14:16:09.876Z,32.50
2018-10-05T14:18:46.234Z,32.41
2018-10-05T14:21:22.401Z,32.74
2018-10-05T14:23:58.511Z,32.78
2018-10-05T14:26:34.604Z,32.59
2018-10-05T14:29:11.069Z,32.82
2018-10-05T14:31:47.497Z,33.36
2018-10-05T14:34:23.725Z,33.03
2018-10-05T14:37:00.041Z,33.35
2018-10-05T14:39:35.766Z,32.73
2018-10-05T14:45:58.869Z,32.79
2018-10-05T14:48:34.921Z,32.70
2018-10-05T14:51:11.243Z,33.06
2018-10-05T14:53:47.091Z,33.19
2018-10-05T14:56:23.265Z,32.34
2018-10-05T14:59:00.831Z,33.14
2018-10-05T15:01:37.062Z,33.04
2018-10-05T15:04:13.436Z,33.45
2018-10-05T15:06:50.050Z,33.81
2018-10-05T15:09:26.076Z,33.61
2018-10-05T15:12:02.437Z,33.03
2018-10-05T15:14:39.972Z,32.99
2018-10-05T15:17:16.440Z,33.34
2018-10-05T15:19:52.290Z,34.21
2018-10-05T15:22:28.260Z,34.17
2018-10-05T15:25:04.259Z,33.98
2018-10-05T15:27:40.432Z,33.81
2018-10-05T15:30:16.268Z,33.13
2018-10-05T15:32:52.536Z,34.53
2018-10-05T15:35:29.262Z,34.19
2018-10-05T15:38:05.091Z,33.46
2018-10-05T15:40:41.266Z,34.54
2018-10-05T15:43:17.424Z,34.09
2018-10-05T15:45:53.792Z,33.75
2018-10-05T15:48:30.064Z,33.59
2018-10-05T15:51:07.247Z,33.42
2018-10-05T15:53:43.317Z,34.42
2018-10-05T15:56:19.305Z,33.45
2018-10-05T15:58:55.569Z,34.02
2018-10-05T16:01:32.088Z,34.74
2018-10-05T16:04:08.105Z,33.67
2018-10-05T16:06:44.472Z,34.72
2018-10-05T16:09:20.882Z,33.84
2018-10-05T16:11:57.299Z,33.61
2018-10-05T16:14:33.479Z,34.39
2018-10-05T16:17:09.505Z,34.13
2018-10-05T16:19:46.273Z,34.29
2018-10-05T16:22:22.941Z,34.75
2018-10-05T16:24:59.458Z,33.60
2018-10-05T16:27:35.901Z,34.38
2018-10-05T16:30:13.336Z,34.20
2018-10-05T16:32:49.448Z,34.01
2018-10-05T16:35:26.103Z,33.54
2018-10-05T16:38:02.146Z,34.22
2018-10-05T16:40:38.291Z,34.36
2018-10-05T16:43:15.104Z,33.62
2018-10-05T16:45:51.331Z,34.75
2018-10-05T16:48:27.296Z,34.85
2018-10-05T16:51:03.448Z,34.84
2018-10-05T16:53:39.148Z,34.42
2018-10-05T16:56:15.287Z,34.09
2018-10-05T16:58:51.289Z,34.48
2018-10-05T17:01:27.448Z,34.75
2018-10-05T17:04:04.242Z,33.87
2018-10-05T17:06:40.472Z,34.57
2018-10-05T17:09:17.128Z,34.30
2018-10-05T17:11:53.493Z,34.60
2018-10-05T17:16:44.505Z,34.22
2018-10-05T17:19:20.288Z,34.38
2018-10-05T17:21:56.247Z,35.00
2018-10-05T17:24:32.445Z,34.58
2018-10-05T17:27:08.257Z,34.45
2018-10-05T17:29:44.283Z,34.96
2018-10-05T17:32:20.457Z,34.79
2018-10-05T17:34:56.748Z,34.62
2018-10-05T17:37:33.100Z,33.75
2018-10-05T17:40:09.464Z,35.06
2018-10-05T17:42:45.994Z,34.68
2018-10-05T17:45:22.113Z,34.57
2018-10-05T17:47:58.325Z,34.07
2018-10-05T17:50:34.315Z,34.11
2018-10-05T17:53:10.337Z,34.42
2018-10-05T17:55:46.783Z,34.16
2018-10-05T17:58:23.134Z,34.55
2018-10-05T18:00:59.788Z,34.72
2018-10-05T18:03:35.884Z,34.23
2018-10-05T18:06:12.196Z,34.68
2018-10-05T18:08:48.818Z,35.23
2018-10-05T18:11:25.077Z,34.34
2018-10-05T18:14:01.377Z,34.55
2018-10-05T18:16:37.570Z,34.76
2018-10-05T18:19:13.925Z,34.66
2018-10-05T18:21:50.044Z,34.73
2018-10-05T18:24:26.138Z,34.63
2018-10-05T18:27:02.486Z,34.33
2018-10-05T18:29:38.709Z,34.59
2018-10-05T18:32:15.048Z,34.52
2018-10-05T18:34:51.175Z,35.18
2018-10-05T18:37:27.126Z,34.44
2018-10-05T18:40:03.398Z,34.58
2018-10-05T18:42:39.519Z,33.83
2018-10-05T18:45:16.278Z,34.67
2018-10-05T18:47:51.909Z,34.02
2018-10-05T18:50:27.945Z,34.74
2018-10-05T18:53:05.061Z,34.33
2018-10-05T18:55:41.028Z,34.62
2018-10-05T18:58:17.513Z,34.57
2018-10-05T19:00:53.391Z,34.66
2018-10-05T19:03:29.828Z,34.12
2018-10-05T19:06:06.038Z,35.04
2018-10-05T19:08:42.336Z,34.80
2018-10-05T19:11:18.516Z,34.64
2018-10-05T19:13:54.337Z,34.98
2018-10-05T19:16:30.443Z,34.75
2018-10-05T19:19:06.657Z,34.66
2018-10-05T19:21:43.102Z,34.11
2018-10-05T19:24:19.116Z,34.72
2018-10-05T19:26:55.333Z,34.68
2018-10-05T19:29:31.537Z,35.15
2018-10-05T19:32:07.377Z,34.60
2018-10-05T19:34:43.571Z,34.45
2018-10-05T19:37:20.076Z,34.57
2018-10-05T19:39:56.169Z,35.13
2018-10-05T19:42:32.337Z,34.38
2018-10-05T19:45:09.144Z,34.50
2018-10-05T19:47:45.340Z,34.16
2018-10-05T19:50:22.178Z,34.50
2018-10-05T19:52:58.403Z,35.28
2018-10-05T19:55:34.601Z,34.65
2018-10-05T19:58:10.531Z,34.08
2018-10-05T20:00:46.556Z,33.98
2018-10-05T20:03:23.144Z,33.94
2018-10-05T20:05:59.422Z,33.99
2018-10-05T20:08:35.548Z,34.04
2018-10-05T20:11:12.185Z,34.63
2018-10-05T20:13:48.257Z,35.01
2018-10-05T20:16:24.357Z,34.02
2018-10-05T20:19:00.557Z,34.19
2018-10-05T20:21:37.032Z,34.68
2018-10-05T20:24:13.201Z,34.59
2018-10-05T20:26:49.397Z,35.07
2018-10-05T20:29:25.315Z,34.62
2018-10-05T20:32:01.171Z,35.08
2018-10-05T20:34:37.370Z,35.55
2018-10-05T20:37:13.495Z,33.97
2018-10-05T20:39:50.174Z,35.06
2018-10-05T20:42:26.537Z,35.03
2018-10-05T20:45:03.372Z,34.38
2018-10-05T20:47:39.381Z,34.50
2018-10-05T20:50:15.323Z,34.72
2018-10-05T20:52:51.432Z,35.16
2018-10-05T20:55:27.989Z,35.01
2018-10-05T20:58:03.966Z,34.63
2018-10-05T21:00:40.373Z,34.13
2018-10-05T21:03:16.381Z,34.54
2018-10-05T21:05:52.556Z,34.51
2018-10-05T21:08:28.637Z,33.95
2018-10-05T21:11:05.169Z,34.17
2018-10-05T21:13:41.179Z,35.08
2018-10-05T21:18:00.189Z,33.84
2018-10-05T21:20:36.283Z,33.91
2018-10-05T21:23:12.215Z,34.11
2018-10-05T21:25:48.209Z,33.92
2018-10-05T21:28:24.692Z,34.37
2018-10-05T21:31:00.679Z,33.85
2018-10-05T21:33:37.057Z,34.32
2018-10-05T21:36:13.000Z,34.28
2018-10-05T21:38:49.221Z,35.04
2018-10-05T21:41:25.183Z,34.49
2018-10-05T21:44:01.634Z,34.88
2018-10-05T21:46:37.722Z,34.60
2018-10-05T21:49:14.214Z,33.65
2018-10-05T21:51:50.429Z,34.61
2018-10-05T21:54:26.211Z,35.06
2018-10-05T21:57:01.938Z,34.73
2018-10-05T21:59:38.580Z,34.77
2018-10-05T22:02:14.126Z,34.82
2018-10-05T22:06:47.950Z,35.75
2018-10-05T22:09:23.595Z,34.03
2018-10-05T22:12:00.073Z,34.20
2018-10-05T22:14:36.291Z,35.37
2018-10-05T22:17:12.215Z,34.28
2018-10-05T22:19:48.440Z,35.41
2018-10-05T22:25:04.894Z,34.15
2018-10-05T22:27:41.200Z,34.45
2018-10-05T22:30:17.231Z,34.54
2018-10-05T22:32:53.418Z,34.96
2018-10-05T22:35:29.414Z,34.08
2018-10-05T22:38:05.595Z,34.32
2018-10-05T22:40:41.950Z,34.51
2018-10-05T22:43:18.274Z,34.95
2018-10-05T22:45:54.237Z,34.56
2018-10-05T22:48:30.238Z,34.16
2018-10-05T22:51:06.277Z,34.57
2018-10-05T22:53:42.726Z,35.29
2018-10-05T22:56:18.977Z,35.23
2018-10-05T22:58:55.003Z,34.48
2018-10-05T23:01:31.168Z,34.51
2018-10-05T23:05:36.448Z,35.50
2018-10-05T23:08:12.251Z,34.73
2018-10-05T23:13:26.858Z,34.89
2018-10-05T23:16:03.162Z,35.02
2018-10-05T23:18:39.440Z,34.77
2018-10-05T23:21:15.679Z,34.25
2018-10-05T23:23:52.002Z,34.90
2018-10-05T23:26:28.425Z,35.55
2018-10-05T23:29:04.441Z,35.45
2018-10-05T23:31:40.594Z,35.30
2018-10-05T23:34:16.897Z,34.13
2018-10-05T23:36:53.082Z,34.88
2018-10-05T23:39:29.232Z,33.63
2018-10-05T23:42:06.161Z,35.45
2018-10-05T23:44:42.264Z,34.72
2018-10-05T23:47:18.262Z,34.61
2018-10-05T23:49:54.005Z,34.42
2018-10-05T23:52:44.665Z,34.74
2018-10-05T23:55:21.945Z,35.31
2018-10-05T23:57:58.090Z,34.85
